sensor_id;sensor_type;location;lat;lon;timestamp;pressure;altitude;pressure_sealevel;temperature;humidity
28935;BME280;16044;52.726;-2.108;2023-01-19T00:00:33;99597.41;;;-1.91;100.00
28935;BME280;16044;52.726;-2.108;2023-01-19T00:03:03;99601.28;;;-1.96;100.00
28935;BME280;16044;52.726;-2.108;2023-01-19T00:05:30;99603.09;;;-1.96;100.00
28935;BME280;16044;52.726;-2.108;2023-01-19T00:07:59;99601.63;;;-2.00;100.00
28935;BME280;16044;52.726;-2.108;2023-01-19T00:10:47;99597.38;;;-2.03;100.00
28935;BME280;16044;52.726;-2.108;2023-01-19T00:13:16;99601.97;;;-2.05;100.00
28935;BME280;16044;52.726;-2.108;2023-01-19T00:15:43;99597.50;;;-2.04;100.00
28935;BME280;16044;52.726;-2.108;2023-01-19T00:18:11;99594.72;;;-2.03;100.00
28935;BME280;16044;52.726;-2.108;2023-01-19T00:20:38;99595.59;;;-2.02;100.00
28935;BME280;16044;52.726;-2.108;2023-01-19T00:23:06;99593.06;;;-2.04;100.00
28935;BME280;16044;52.726;-2.108;2023-01-19T00:25:34;99588.81;;;-2.06;100.00
28935;BME280;16044;52.726;-2.108;2023-01-19T00:28:14;99596.53;;;-2.14;100.00
28935;BME280;16044;52.726;-2.108;2023-01-19T00:30:42;99589.19;;;-2.11;100.00
28935;BME280;16044;52.726;-2.108;2023-01-19T00:33:11;99596.31;;;-2.11;100.00
28935;BME280;16044;52.726;-2.108;2023-01-19T00:35:41;99596.53;;;-2.14;100.00
28935;BME280;16044;52.726;-2.108;2023-01-19T00:38:10;99600.38;;;-2.19;100.00
28935;BME280;16044;52.726;-2.108;2023-01-19T00:40:37;99603.25;;;-2.22;100.00
28935;BME280;16044;52.726;-2.108;2023-01-19T00:43:04;99591.69;;;-2.21;100.00
28935;BME280;16044;52.726;-2.108;2023-01-19T00:45:32;99596.28;;;-2.23;100.00
28935;BME280;16044;52.726;-2.108;2023-01-19T00:47:59;99593.84;;;-2.26;100.00
28935;BME280;16044;52.726;-2.108;2023-01-19T00:50:28;99591.41;;;-2.29;100.00
28935;BME280;16044;52.726;-2.108;2023-01-19T00:52:56;99596.00;;;-2.31;100.00
28935;BME280;16044;52.726;-2.108;2023-01-19T00:55:27;99596.25;;;-2.34;100.00
28935;BME280;16044;52.726;-2.108;2023-01-19T00:57:55;99600.22;;;-2.40;100.00
28935;BME280;16044;52.726;-2.108;2023-01-19T01:00:22;99609.00;;;-2.39;100.00
28935;BME280;16044;52.726;-2.108;2023-01-19T01:02:51;99598.63;;;-2.42;100.00
28935;BME280;16044;52.726;-2.108;2023-01-19T01:05:19;99604.91;;;-2.43;100.00
28935;BME280;16044;52.726;-2.108;2023-01-19T01:07:47;99605.41;;;-2.38;100.00
28935;BME280;16044;52.726;-2.108;2023-01-19T01:10:24;99600.09;;;-2.38;100.00
28935;BME280;16044;52.726;-2.108;2023-01-19T01:12:53;99607.72;;;-2.33;100.00
28935;BME280;16044;52.726;-2.108;2023-01-19T01:15:26;99611.19;;;-2.33;100.00
28935;BME280;16044;52.726;-2.108;2023-01-19T01:17:53;99603.22;;;-2.33;100.00
28935;BME280;16044;52.726;-2.108;2023-01-19T01:20:24;99600.84;;;-2.36;100.00
28935;BME280;16044;52.726;-2.108;2023-01-19T01:22:54;99598.78;;;-2.32;100.00
28935;BME280;16044;52.726;-2.108;2023-01-19T01:25:24;99604.09;;;-2.32;100.00
28935;BME280;16044;52.726;-2.108;2023-01-19T01:27:53;99611.44;;;-2.36;100.00
28935;BME280;16044;52.726;-2.108;2023-01-19T01:30:20;99605.28;;;-2.37;100.00
28935;BME280;16044;52.726;-2.108;2023-01-19T01:32:48;99605.63;;;-2.41;100.00
28935;BME280;16044;52.726;-2.108;2023-01-19T01:35:15;99604.91;;;-2.43;100.00
28935;BME280;16044;52.726;-2.108;2023-01-19T01:37:43;99616.56;;;-2.46;100.00
28935;BME280;16044;52.726;-2.108;2023-01-19T01:40:12;99622.88;;;-2.47;100.00
28935;BME280;16044;52.726;-2.108;2023-01-19T01:42:41;99622.25;;;-2.50;100.00
28935;BME280;16044;52.726;-2.108;2023-01-19T01:45:31;99625.25;;;-2.55;100.00
28935;BME280;16044;52.726;-2.108;2023-01-19T01:48:23;99619.06;;;-2.56;100.00
28935;BME280;16044;52.726;-2.108;2023-01-19T01:56:45;99622.09;;;-2.60;100.00
28935;BME280;16044;52.726;-2.108;2023-01-19T01:59:16;99629.41;;;-2.64;100.00
28935;BME280;16044;52.726;-2.108;2023-01-19T02:01:59;99628.69;;;-2.66;100.00
28935;BME280;16044;52.726;-2.108;2023-01-19T02:05:03;99627.22;;;-2.70;100.00
28935;BME280;16044;52.726;-2.108;2023-01-19T02:07:45;99623.59;;;-2.69;100.00
28935;BME280;16044;52.726;-2.108;2023-01-19T02:10:32;99635.91;;;-2.68;100.00
28935;BME280;16044;52.726;-2.108;2023-01-19T02:13:20;99627.97;;;-2.68;100.00
28935;BME280;16044;52.726;-2.108;2023-01-19T02:15:48;99632.28;;;-2.67;100.00
28935;BME280;16044;52.726;-2.108;2023-01-19T02:18:24;99624.00;;;-2.62;100.00
28935;BME280;16044;52.726;-2.108;2023-01-19T02:23:50;99626.34;;;-2.46;100.00
28935;BME280;16044;52.726;-2.108;2023-01-19T02:26:39;99628.81;;;-2.32;100.00
28935;BME280;16044;52.726;-2.108;2023-01-19T02:29:11;99630.53;;;-2.20;100.00
28935;BME280;16044;52.726;-2.108;2023-01-19T02:31:48;99634.69;;;-2.04;100.00
28935;BME280;16044;52.726;-2.108;2023-01-19T02:34:18;99635.19;;;-1.88;100.00
28935;BME280;16044;52.726;-2.108;2023-01-19T02:39:37;99626.44;;;-1.54;100.00
28935;BME280;16044;52.726;-2.108;2023-01-19T02:44:55;99625.31;;;-1.29;100.00
28935;BME280;16044;52.726;-2.108;2023-01-19T02:47:23;99623.50;;;-1.18;100.00
28935;BME280;16044;52.726;-2.108;2023-01-19T02:49:57;99623.59;;;-1.08;100.00
28935;BME280;16044;52.726;-2.108;2023-01-19T02:52:26;99628.91;;;-0.96;100.00
28935;BME280;16044;52.726;-2.108;2023-01-19T02:55:16;99618.50;;;-0.88;100.00
28935;BME280;16044;52.726;-2.108;2023-01-19T03:00:42;99620.13;;;-0.76;100.00
28935;BME280;16044;52.726;-2.108;2023-01-19T03:03:41;99612.16;;;-0.76;100.00
28935;BME280;16044;52.726;-2.108;2023-01-19T03:12:23;99605.41;;;-0.80;100.00
28935;BME280;16044;52.726;-2.108;2023-01-19T03:15:00;99604.09;;;-0.86;100.00
28935;BME280;16044;52.726;-2.108;2023-01-19T03:17:31;99594.78;;;-0.91;100.00
28935;BME280;16044;52.726;-2.108;2023-01-19T03:20:01;99592.66;;;-0.98;100.00
28935;BME280;16044;52.726;-2.108;2023-01-19T03:22:30;99599.63;;;-0.96;100.00
28935;BME280;16044;52.726;-2.108;2023-01-19T03:24:59;99601.84;;;-1.02;100.00
28935;BME280;16044;52.726;-2.108;2023-01-19T03:27:29;99596.03;;;-1.07;100.00
28935;BME280;16044;52.726;-2.108;2023-01-19T03:30:07;99602.00;;;-1.14;100.00
28935;BME280;16044;52.726;-2.108;2023-01-19T03:32:41;99596.91;;;-1.18;100.00
28935;BME280;16044;52.726;-2.108;2023-01-19T03:35:12;99590.88;;;-1.20;100.00
28935;BME280;16044;52.726;-2.108;2023-01-19T03:37:43;99585.09;;;-1.25;100.00
28935;BME280;16044;52.726;-2.108;2023-01-19T03:40:12;99581.94;;;-1.30;100.00
28935;BME280;16044;52.726;-2.108;2023-01-19T03:42:39;99590.03;;;-1.31;100.00
28935;BME280;16044;52.726;-2.108;2023-01-19T03:45:07;99584.97;;;-1.34;100.00
28935;BME280;16044;52.726;-2.108;2023-01-19T03:47:35;99588.84;;;-1.39;100.00
28935;BME280;16044;52.726;-2.108;2023-01-19T03:50:05;99586.69;;;-1.45;100.00
28935;BME280;16044;52.726;-2.108;2023-01-19T03:52:36;99577.97;;;-1.47;100.00
28935;BME280;16044;52.726;-2.108;2023-01-19T03:55:03;99576.28;;;-1.48;100.00
28935;BME280;16044;52.726;-2.108;2023-01-19T03:57:31;99568.56;;;-1.51;100.00
28935;BME280;16044;52.726;-2.108;2023-01-19T03:59:58;99570.50;;;-1.53;100.00
28935;BME280;16044;52.726;-2.108;2023-01-19T04:02:25;99571.56;;;-1.55;100.00
28935;BME280;16044;52.726;-2.108;2023-01-19T04:04:52;99577.88;;;-1.57;100.00
28935;BME280;16044;52.726;-2.108;2023-01-19T04:07:19;99571.22;;;-1.62;100.00
28935;BME280;16044;52.726;-2.108;2023-01-19T04:09:46;99569.31;;;-1.60;100.00
28935;BME280;16044;52.726;-2.108;2023-01-19T04:12:13;99564.22;;;-1.63;100.00
28935;BME280;16044;52.726;-2.108;2023-01-19T04:14:40;99570.75;;;-1.67;100.00
28935;BME280;16044;52.726;-2.108;2023-01-19T04:17:06;99580.53;;;-1.68;100.00
28935;BME280;16044;52.726;-2.108;2023-01-19T04:19:34;99581.59;;;-1.70;100.00
28935;BME280;16044;52.726;-2.108;2023-01-19T04:22:01;99581.88;;;-1.73;100.00
28935;BME280;16044;52.726;-2.108;2023-01-19T04:24:28;99574.34;;;-1.80;100.00
28935;BME280;16044;52.726;-2.108;2023-01-19T04:26:55;99572.91;;;-1.84;100.00
28935;BME280;16044;52.726;-2.108;2023-01-19T04:29:22;99571.47;;;-1.88;100.00
28935;BME280;16044;52.726;-2.108;2023-01-19T04:31:49;99570.84;;;-1.91;100.00
28935;BME280;16044;52.726;-2.108;2023-01-19T04:34:16;99575.81;;;-1.98;100.00
28935;BME280;16044;52.726;-2.108;2023-01-19T04:36:43;99580.50;;;-2.02;100.00
28935;BME280;16044;52.726;-2.108;2023-01-19T04:39:11;99580.00;;;-2.07;100.00
28935;BME280;16044;52.726;-2.108;2023-01-19T04:41:38;99572.28;;;-2.10;100.00
28935;BME280;16044;52.726;-2.108;2023-01-19T04:44:05;99577.94;;;-2.14;100.00
28935;BME280;16044;52.726;-2.108;2023-01-19T04:46:32;99575.78;;;-2.21;100.00
28935;BME280;16044;52.726;-2.108;2023-01-19T04:48:59;99577.91;;;-2.26;100.00
28935;BME280;16044;52.726;-2.108;2023-01-19T04:51:26;99574.66;;;-2.29;100.00
28935;BME280;16044;52.726;-2.108;2023-01-19T04:53:54;99577.66;;;-2.34;100.00
28935;BME280;16044;52.726;-2.108;2023-01-19T04:56:21;99578.97;;;-2.40;100.00
28935;BME280;16044;52.726;-2.108;2023-01-19T04:58:48;99577.63;;;-2.45;100.00
28935;BME280;16044;52.726;-2.108;2023-01-19T05:01:15;99584.00;;;-2.48;100.00
28935;BME280;16044;52.726;-2.108;2023-01-19T05:03:41;99585.31;;;-2.53;100.00
28935;BME280;16044;52.726;-2.108;2023-01-19T05:06:08;99584.69;;;-2.57;100.00
28935;BME280;16044;52.726;-2.108;2023-01-19T05:08:35;99591.09;;;-2.60;100.00
28935;BME280;16044;52.726;-2.108;2023-01-19T05:11:02;99579.03;;;-2.64;100.00
28935;BME280;16044;52.726;-2.108;2023-01-19T05:13:29;99582.88;;;-2.68;100.00
28935;BME280;16044;52.726;-2.108;2023-01-19T05:15:56;99574.19;;;-2.70;100.00
28935;BME280;16044;52.726;-2.108;2023-01-19T05:18:23;99571.75;;;-2.73;100.00
28935;BME280;16044;52.726;-2.108;2023-01-19T05:20:49;99578.13;;;-2.76;100.00
28935;BME280;16044;52.726;-2.108;2023-01-19T05:23:16;99578.47;;;-2.80;100.00
28935;BME280;16044;52.726;-2.108;2023-01-19T05:25:43;99572.53;;;-2.84;100.00
28935;BME280;16044;52.726;-2.108;2023-01-19T05:28:10;99575.53;;;-2.88;100.00
28935;BME280;16044;52.726;-2.108;2023-01-19T05:30:37;99584.69;;;-2.92;100.00
28935;BME280;16044;52.726;-2.108;2023-01-19T05:33:04;99584.91;;;-2.96;100.00
28935;BME280;16044;52.726;-2.108;2023-01-19T05:35:31;99577.16;;;-2.99;100.00
28935;BME280;16044;52.726;-2.108;2023-01-19T05:38:02;99579.22;;;-3.02;100.00
28935;BME280;16044;52.726;-2.108;2023-01-19T05:40:29;99576.66;;;-3.04;100.00
28935;BME280;16044;52.726;-2.108;2023-01-19T05:42:56;99574.13;;;-3.05;100.00
28935;BME280;16044;52.726;-2.108;2023-01-19T05:45:26;99571.59;;;-3.07;100.00
28935;BME280;16044;52.726;-2.108;2023-01-19T05:47:54;99578.69;;;-3.07;100.00
28935;BME280;16044;52.726;-2.108;2023-01-19T05:50:21;99574.59;;;-3.11;100.00
28935;BME280;16044;52.726;-2.108;2023-01-19T05:52:48;99577.34;;;-3.13;100.00
28935;BME280;16044;52.726;-2.108;2023-01-19T05:55:15;99572.97;;;-3.14;100.00
28935;BME280;16044;52.726;-2.108;2023-01-19T05:57:42;99573.13;;;-3.16;100.00
28935;BME280;16044;52.726;-2.108;2023-01-19T06:00:10;99571.41;;;-3.17;100.00
28935;BME280;16044;52.726;-2.108;2023-01-19T06:02:37;99577.78;;;-3.19;100.00
28935;BME280;16044;52.726;-2.108;2023-01-19T06:05:04;99575.34;;;-3.22;100.00
28935;BME280;16044;52.726;-2.108;2023-01-19T06:07:31;99579.94;;;-3.24;100.00
28935;BME280;16044;52.726;-2.108;2023-01-19T06:09:58;99566.78;;;-3.26;100.00
28935;BME280;16044;52.726;-2.108;2023-01-19T06:12:25;99566.16;;;-3.29;100.00
28935;BME280;16044;52.726;-2.108;2023-01-19T06:14:52;99568.91;;;-3.31;100.00
28935;BME280;16044;52.726;-2.108;2023-01-19T06:17:19;99570.81;;;-3.33;100.00
28935;BME280;16044;52.726;-2.108;2023-01-19T06:19:46;99571.69;;;-3.33;100.00
28935;BME280;16044;52.726;-2.108;2023-01-19T06:22:13;99577.00;;;-3.33;100.00
28935;BME280;16044;52.726;-2.108;2023-01-19T06:24:42;99572.19;;;-3.27;100.00
28935;BME280;16044;52.726;-2.108;2023-01-19T06:27:09;99581.84;;;-3.26;100.00
28935;BME280;16044;52.726;-2.108;2023-01-19T06:29:36;99574.94;;;-3.29;100.00
28935;BME280;16044;52.726;-2.108;2023-01-19T06:32:04;99574.00;;;-3.28;100.00
28935;BME280;16044;52.726;-2.108;2023-01-19T06:34:31;99574.00;;;-3.28;100.00
28935;BME280;16044;52.726;-2.108;2023-01-19T06:36:58;99583.53;;;-3.25;100.00
28935;BME280;16044;52.726;-2.108;2023-01-19T06:39:25;99576.44;;;-3.25;100.00
28935;BME280;16044;52.726;-2.108;2023-01-19T06:41:52;99575.25;;;-3.21;100.00
28935;BME280;16044;52.726;-2.108;2023-01-19T06:44:19;99580.31;;;-3.18;100.00
28935;BME280;16044;52.726;-2.108;2023-01-19T06:46:46;99584.31;;;-3.12;100.00
28935;BME280;16044;52.726;-2.108;2023-01-19T06:49:14;99578.81;;;-3.09;100.00
28935;BME280;16044;52.726;-2.108;2023-01-19T06:51:41;99580.28;;;-3.05;100.00
28935;BME280;16044;52.726;-2.108;2023-01-19T06:54:08;99581.97;;;-3.04;100.00
28935;BME280;16044;52.726;-2.108;2023-01-19T06:56:35;99584.38;;;-3.01;100.00
28935;BME280;16044;52.726;-2.108;2023-01-19T06:59:02;99584.38;;;-3.01;100.00
28935;BME280;16044;52.726;-2.108;2023-01-19T07:01:29;99581.13;;;-3.04;100.00
28935;BME280;16044;52.726;-2.108;2023-01-19T07:03:58;99582.19;;;-3.07;100.00
28935;BME280;16044;52.726;-2.108;2023-01-19T07:06:25;99579.03;;;-3.12;100.00
28935;BME280;16044;52.726;-2.108;2023-01-19T07:08:53;99581.19;;;-3.17;100.00
28935;BME280;16044;52.726;-2.108;2023-01-19T07:11:20;99584.16;;;-3.22;100.00
28935;BME280;16044;52.726;-2.108;2023-01-19T07:13:58;99587.97;;;-3.26;100.00
28935;BME280;16044;52.726;-2.108;2023-01-19T07:16:25;99597.13;;;-3.30;100.00
28935;BME280;16044;52.726;-2.108;2023-01-19T07:18:52;99607.09;;;-3.34;100.00
28935;BME280;16044;52.726;-2.108;2023-01-19T07:21:19;99603.81;;;-3.37;100.00
28935;BME280;16044;52.726;-2.108;2023-01-19T07:23:48;99607.53;;;-3.40;100.00
28935;BME280;16044;52.726;-2.108;2023-01-19T07:26:15;99608.72;;;-3.44;100.00
28935;BME280;16044;52.726;-2.108;2023-01-19T07:28:47;99607.09;;;-3.46;100.00
28935;BME280;16044;52.726;-2.108;2023-01-19T07:31:14;99598.44;;;-3.48;100.00
28935;BME280;16044;52.726;-2.108;2023-01-19T07:33:42;99616.22;;;-3.50;100.00
28935;BME280;16044;52.726;-2.108;2023-01-19T07:36:09;99605.00;;;-3.54;100.00
28935;BME280;16044;52.726;-2.108;2023-01-19T07:38:36;99600.88;;;-3.58;100.00
28935;BME280;16044;52.726;-2.108;2023-01-19T07:41:05;99600.78;;;-3.57;100.00
28935;BME280;16044;52.726;-2.108;2023-01-19T07:43:33;99607.56;;;-3.53;100.00
28935;BME280;16044;52.726;-2.108;2023-01-19T07:46:02;99608.06;;;-3.47;100.00
28935;BME280;16044;52.726;-2.108;2023-01-19T07:48:31;99617.28;;;-3.40;100.00
28935;BME280;16044;52.726;-2.108;2023-01-19T07:51:03;99622.16;;;-3.34;100.00
28935;BME280;16044;52.726;-2.108;2023-01-19T07:53:48;99621.69;;;-3.28;100.00
28935;BME280;16044;52.726;-2.108;2023-01-19T07:56:16;99616.81;;;-3.21;100.00
28935;BME280;16044;52.726;-2.108;2023-01-19T07:58:43;99610.34;;;-3.17;100.00
28935;BME280;16044;52.726;-2.108;2023-01-19T08:01:11;99610.97;;;-3.14;100.00
28935;BME280;16044;52.726;-2.108;2023-01-19T08:03:39;99619.84;;;-3.15;100.00
28935;BME280;16044;52.726;-2.108;2023-01-19T08:06:06;99617.41;;;-3.18;100.00
28935;BME280;16044;52.726;-2.108;2023-01-19T08:08:33;99614.91;;;-3.19;100.00
28935;BME280;16044;52.726;-2.108;2023-01-19T08:11:00;99623.78;;;-3.20;100.00
28935;BME280;16044;52.726;-2.108;2023-01-19T08:13:27;99629.31;;;-3.23;100.00
28935;BME280;16044;52.726;-2.108;2023-01-19T08:15:54;99633.78;;;-3.24;100.00
28935;BME280;16044;52.726;-2.108;2023-01-19T08:18:21;99623.16;;;-3.24;100.00
28935;BME280;16044;52.726;-2.108;2023-01-19T08:20:48;99633.56;;;-3.21;100.00
28935;BME280;16044;52.726;-2.108;2023-01-19T08:23:15;99633.31;;;-3.18;100.00
28935;BME280;16044;52.726;-2.108;2023-01-19T08:25:44;99651.13;;;-3.07;100.00
28935;BME280;16044;52.726;-2.108;2023-01-19T08:28:14;99670.09;;;-3.00;100.00
28935;BME280;16044;52.726;-2.108;2023-01-19T08:30:41;99671.78;;;-2.99;100.00
28935;BME280;16044;52.726;-2.108;2023-01-19T08:33:11;99668.13;;;-2.85;100.00
28935;BME280;16044;52.726;-2.108;2023-01-19T08:35:40;99665.88;;;-2.79;100.00
28935;BME280;16044;52.726;-2.108;2023-01-19T08:38:14;99667.97;;;-2.71;100.00
28935;BME280;16044;52.726;-2.108;2023-01-19T08:40:42;99663.91;;;-2.64;100.00
28935;BME280;16044;52.726;-2.108;2023-01-19T08:43:14;99673.13;;;-2.57;100.00
28935;BME280;16044;52.726;-2.108;2023-01-19T08:45:44;99663.75;;;-2.49;100.00
28935;BME280;16044;52.726;-2.108;2023-01-19T08:48:16;99665.09;;;-2.44;100.00
28935;BME280;16044;52.726;-2.108;2023-01-19T08:50:45;99675.25;;;-2.38;100.00
28935;BME280;16044;52.726;-2.108;2023-01-19T08:53:13;99677.56;;;-2.33;100.00
28935;BME280;16044;52.726;-2.108;2023-01-19T08:55:41;99678.69;;;-2.24;100.00
28935;BME280;16044;52.726;-2.108;2023-01-19T08:58:08;99683.63;;;-2.20;100.00
28935;BME280;16044;52.726;-2.108;2023-01-19T09:00:37;99687.63;;;-2.14;100.00
28935;BME280;16044;52.726;-2.108;2023-01-19T09:03:06;99692.16;;;-2.03;100.00
28935;BME280;16044;52.726;-2.108;2023-01-19T09:05:35;99692.28;;;-1.93;100.00
28935;BME280;16044;52.726;-2.108;2023-01-19T09:08:07;99690.41;;;-1.80;100.00
28935;BME280;16044;52.726;-2.108;2023-01-19T09:10:44;99688.59;;;-1.68;100.00
28935;BME280;16044;52.726;-2.108;2023-01-19T09:13:13;99691.53;;;-1.60;100.00
28935;BME280;16044;52.726;-2.108;2023-01-19T09:15:41;99682.84;;;-1.51;100.00
28935;BME280;16044;52.726;-2.108;2023-01-19T09:18:12;99683.56;;;-1.49;100.00
28935;BME280;16044;52.726;-2.108;2023-01-19T09:20:45;99682.00;;;-1.40;100.00
28935;BME280;16044;52.726;-2.108;2023-01-19T09:23:16;99684.31;;;-1.35;100.00
28935;BME280;16044;52.726;-2.108;2023-01-19T09:25:46;99697.84;;;-1.27;100.00
28935;BME280;16044;52.726;-2.108;2023-01-19T09:28:15;99697.22;;;-1.20;100.00
28935;BME280;16044;52.726;-2.108;2023-01-19T09:30:43;99703.16;;;-1.16;100.00
28935;BME280;16044;52.726;-2.108;2023-01-19T09:33:13;99703.66;;;-1.11;100.00
28935;BME280;16044;52.726;-2.108;2023-01-19T09:35:43;99706.78;;;-1.06;100.00
28935;BME280;16044;52.726;-2.108;2023-01-19T09:38:12;99710.03;;;-1.02;100.00
28935;BME280;16044;52.726;-2.108;2023-01-19T09:40:48;99717.53;;;-0.96;100.00
28935;BME280;16044;52.726;-2.108;2023-01-19T09:43:39;99715.00;;;-0.86;100.00
28935;BME280;16044;52.726;-2.108;2023-01-19T09:46:12;99716.09;;;-0.77;100.00
28935;BME280;16044;52.726;-2.108;2023-01-19T09:48:55;99719.31;;;-0.74;100.00
28935;BME280;16044;52.726;-2.108;2023-01-19T09:51:26;99717.13;;;-0.69;100.00
28935;BME280;16044;52.726;-2.108;2023-01-19T09:54:15;99720.00;;;-0.61;100.00
28935;BME280;16044;52.726;-2.108;2023-01-19T09:56:46;99711.78;;;-0.57;100.00
28935;BME280;16044;52.726;-2.108;2023-01-19T10:10:22;99714.66;;;-0.49;100.00
28935;BME280;16044;52.726;-2.108;2023-01-19T10:18:49;99718.97;;;-0.26;100.00
28935;BME280;16044;52.726;-2.108;2023-01-19T10:21:32;99714.84;;;-0.18;100.00
28935;BME280;16044;52.726;-2.108;2023-01-19T10:24:05;99715.28;;;-0.13;100.00
28935;BME280;16044;52.726;-2.108;2023-01-19T10:26:44;99723.75;;;-0.08;100.00
28935;BME280;16044;52.726;-2.108;2023-01-19T10:29:30;99733.31;;;-0.06;100.00
28935;BME280;16044;52.726;-2.108;2023-01-19T10:32:06;99727.13;;;-0.06;100.00
28935;BME280;16044;52.726;-2.108;2023-01-19T10:34:39;99734.75;;;-0.02;100.00
28935;BME280;16044;52.726;-2.108;2023-01-19T10:37:31;99740.66;;;0.02;100.00
28935;BME280;16044;52.726;-2.108;2023-01-19T10:42:51;99743.94;;;0.27;100.00
28935;BME280;16044;52.726;-2.108;2023-01-19T10:45:21;99749.06;;;0.39;100.00
28935;BME280;16044;52.726;-2.108;2023-01-19T10:47:52;99745.50;;;0.50;100.00
28935;BME280;16044;52.726;-2.108;2023-01-19T10:52:58;99751.75;;;0.61;100.00
28935;BME280;16044;52.726;-2.108;2023-01-19T10:55:35;99752.91;;;0.68;100.00
28935;BME280;16044;52.726;-2.108;2023-01-19T10:58:04;99753.47;;;0.71;100.00
28935;BME280;16044;52.726;-2.108;2023-01-19T11:03:20;99749.03;;;0.72;100.00
28935;BME280;16044;52.726;-2.108;2023-01-19T11:08:46;99746.34;;;0.72;100.00
28935;BME280;16044;52.726;-2.108;2023-01-19T11:11:13;99741.03;;;0.72;100.00
28935;BME280;16044;52.726;-2.108;2023-01-19T11:13:41;99743.94;;;0.69;100.00
28935;BME280;16044;52.726;-2.108;2023-01-19T11:18:56;99744.38;;;0.53;100.00
28935;BME280;16044;52.726;-2.108;2023-01-19T11:21:24;99752.25;;;0.54;100.00
28935;BME280;16044;52.726;-2.108;2023-01-19T11:23:58;99749.28;;;0.48;100.00
28935;BME280;16044;52.726;-2.108;2023-01-19T11:26:48;99755.22;;;0.51;100.00
28935;BME280;16044;52.726;-2.108;2023-01-19T11:29:19;99755.91;;;0.53;100.00
28935;BME280;16044;52.726;-2.108;2023-01-19T11:31:49;99760.72;;;0.60;100.00
28935;BME280;16044;52.726;-2.108;2023-01-19T11:34:29;99756.03;;;0.73;100.00
28935;BME280;16044;52.726;-2.108;2023-01-19T11:39:49;99741.56;;;0.96;100.00
28935;BME280;16044;52.726;-2.108;2023-01-19T11:42:18;99733.19;;;1.11;100.00
28935;BME280;16044;52.726;-2.108;2023-01-19T11:44:57;99736.47;;;1.24;100.00
28935;BME280;16044;52.726;-2.108;2023-01-19T11:47:41;99745.66;;;1.41;100.00
28935;BME280;16044;52.726;-2.108;2023-01-19T11:53:27;99752.59;;;1.63;100.00
28935;BME280;16044;52.726;-2.108;2023-01-19T11:56:13;99754.72;;;1.69;100.00
28935;BME280;16044;52.726;-2.108;2023-01-19T11:58:42;99749.94;;;1.73;100.00
28935;BME280;16044;52.726;-2.108;2023-01-19T12:01:20;99751.19;;;1.69;100.00
28935;BME280;16044;52.726;-2.108;2023-01-19T12:03:54;99746.81;;;1.58;100.00
28935;BME280;16044;52.726;-2.108;2023-01-19T12:09:02;99742.59;;;1.46;100.00
28935;BME280;16044;52.726;-2.108;2023-01-19T12:11:45;99733.28;;;1.40;100.00
28935;BME280;16044;52.726;-2.108;2023-01-19T12:14:26;99746.34;;;1.43;100.00
28935;BME280;16044;52.726;-2.108;2023-01-19T12:16:58;99740.44;;;1.40;100.00
28935;BME280;16044;52.726;-2.108;2023-01-19T12:19:43;99734.69;;;1.34;100.00
28935;BME280;16044;52.726;-2.108;2023-01-19T12:22:16;99733.56;;;1.37;100.00
28935;BME280;16044;52.726;-2.108;2023-01-19T12:27:48;99729.34;;;1.34;100.00
28935;BME280;16044;52.726;-2.108;2023-01-19T12:30:20;99737.75;;;1.30;100.00
28935;BME280;16044;52.726;-2.108;2023-01-19T12:32:49;99733.22;;;1.30;100.00
28935;BME280;16044;52.726;-2.108;2023-01-19T12:41:29;99716.09;;;1.23;100.00
28935;BME280;16044;52.726;-2.108;2023-01-19T12:46:42;99714.66;;;1.19;100.00
28935;BME280;16044;52.726;-2.108;2023-01-19T13:00:46;99703.75;;;1.32;100.00
28935;BME280;16044;52.726;-2.108;2023-01-19T13:05:54;99711.63;;;1.33;100.00
28935;BME280;16044;52.726;-2.108;2023-01-19T13:08:24;99716.69;;;1.36;100.00
28935;BME280;16044;52.726;-2.108;2023-01-19T13:13:28;99730.47;;;1.42;100.00
28935;BME280;16044;52.726;-2.108;2023-01-19T13:16:42;99727.25;;;1.48;100.00
28935;BME280;16044;52.726;-2.108;2023-01-19T13:18:56;99727.16;;;1.59;100.00
28935;BME280;16044;52.726;-2.108;2023-01-19T13:21:47;99731.66;;;1.68;100.00
28935;BME280;16044;52.726;-2.108;2023-01-19T13:24:18;99725.75;;;1.74;100.00
28935;BME280;16044;52.726;-2.108;2023-01-19T13:29:39;99738.69;;;1.89;100.00
28935;BME280;16044;52.726;-2.108;2023-01-19T13:32:15;99740.25;;;1.91;100.00
28935;BME280;16044;52.726;-2.108;2023-01-19T13:34:48;99739.56;;;1.99;100.00
28935;BME280;16044;52.726;-2.108;2023-01-19T13:37:20;99739.56;;;1.99;100.00
28935;BME280;16044;52.726;-2.108;2023-01-19T13:39:50;99735.31;;;1.97;100.00
28935;BME280;16044;52.726;-2.108;2023-01-19T13:42:39;99730.41;;;1.92;100.00
28935;BME280;16044;52.726;-2.108;2023-01-19T13:45:30;99734.91;;;1.91;100.00
28935;BME280;16044;52.726;-2.108;2023-01-19T13:48:07;99745.16;;;1.86;100.00
28935;BME280;16044;52.726;-2.108;2023-01-19T13:50:38;99743.19;;;1.79;100.00
28935;BME280;16044;52.726;-2.108;2023-01-19T13:53:19;99737.28;;;1.75;100.00
28935;BME280;16044;52.726;-2.108;2023-01-19T13:55:46;99744.91;;;1.80;100.00
28935;BME280;16044;52.726;-2.108;2023-01-19T13:58:20;99747.69;;;1.68;100.00
28935;BME280;16044;52.726;-2.108;2023-01-19T14:00:48;99751.34;;;1.67;100.00
28935;BME280;16044;52.726;-2.108;2023-01-19T14:03:17;99751.06;;;1.70;100.00
28935;BME280;16044;52.726;-2.108;2023-01-19T14:05:53;99750.63;;;1.65;100.00
28935;BME280;16044;52.726;-2.108;2023-01-19T14:08:21;99749.63;;;1.66;100.00
28935;BME280;16044;52.726;-2.108;2023-01-19T14:13:34;99766.09;;;1.62;100.00
28935;BME280;16044;52.726;-2.108;2023-01-19T14:16:11;99762.56;;;1.61;100.00
28935;BME280;16044;52.726;-2.108;2023-01-19T14:18:41;99767.50;;;1.66;100.00
28935;BME280;16044;52.726;-2.108;2023-01-19T14:21:12;99763.72;;;1.68;100.00
28935;BME280;16044;52.726;-2.108;2023-01-19T14:26:53;99774.56;;;1.77;100.00
28935;BME280;16044;52.726;-2.108;2023-01-19T14:34:39;99783.53;;;1.75;100.00
28935;BME280;16044;52.726;-2.108;2023-01-19T14:37:29;99781.56;;;1.78;100.00
28935;BME280;16044;52.726;-2.108;2023-01-19T14:39:59;99789.03;;;1.74;100.00
28935;BME280;16044;52.726;-2.108;2023-01-19T14:42:37;99784.66;;;1.73;100.00
28935;BME280;16044;52.726;-2.108;2023-01-19T14:45:23;99790.13;;;1.62;99.76
28935;BME280;16044;52.726;-2.108;2023-01-19T14:48:05;99790.84;;;1.64;99.94